Heat Index SAI AWOS Graphical Display Untitled Document
Bertrand Chaffee Hospital Heliport (2NK6) Springville, New York, USA
150
10:27
31/10/2014
00
N/A
N/A
29.94
N/A
1420
41(F), 5(C)
37(F), 3(C)
41 F
86%
OVC055
10
N/A
0"
N/A
10:27 zulu Wind Calm, Altimeter 29.94
METAR K2NK6 311027Z AUTO 00000KT 10SM OVC055 05/03 A2994 A02 P0000
METAR:
FAA Disclaimer--Advisory Use ONLY, not for flight info--
INFO:
Wind Direction:
Wind Speed:
Wind Gust:
Wind Variable:
Altimeter:
Dens Alt:
Elev:
Temp:
Dwpt:
Wind Chill
Rel Humidity:
Ceiling:
Visibility:
Prsnt Wea:
PCPN:
Remarks:
How to read the WebPage